Time,TemperatureF,DewpointF,PressureIn,WindDirection,WindDirectionDegrees,WindSpeedMPH,WindSpeedGustMPH,Humidity,HourlyPrecipIn,Conditions,Clouds,dailyrainin,SoftwareType,DateUTC
2013-03-12 00:02:00,30.0,13.6,30.15,WNW,292,17.0,30.0,50,0.00,,,0.00,VWS V14.01,2013-03-12 06:02:00,
2013-03-12 00:07:00,30.0,13.6,30.15,WNW,292,17.0,28.0,50,0.00,,,0.00,VWS V14.01,2013-03-12 06:07:00,
2013-03-12 00:12:00,29.0,13.6,30.15,WNW,292,19.0,30.0,52,0.00,,,0.00,VWS V14.01,2013-03-12 06:12:00,
2013-03-12 00:17:00,30.0,14.1,30.15,NW,315,20.0,23.0,51,0.00,,,0.00,VWS V14.01,2013-03-12 06:17:00,
2013-03-12 00:22:00,30.0,14.1,30.16,NW,315,18.0,27.0,51,0.00,,,0.00,VWS V14.01,2013-03-12 06:22:00,
2013-03-12 00:27:00,29.0,13.6,30.16,NW,315,19.0,33.0,52,0.00,,,0.00,VWS V14.01,2013-03-12 06:27:00,
2013-03-12 00:32:00,29.0,13.6,30.16,NW,315,22.0,26.0,52,0.00,,,0.00,VWS V14.01,2013-03-12 06:32:00,
2013-03-12 00:37:00,29.0,14.0,30.16,NW,315,22.0,29.0,53,0.00,,,0.00,VWS V14.01,2013-03-12 06:37:00,
2013-03-12 00:42:00,28.0,13.9,30.17,NW,315,15.0,21.0,55,0.00,,,0.00,VWS V14.01,2013-03-12 06:42:00,
2013-03-12 00:47:00,28.0,14.3,30.17,NW,315,19.0,20.0,56,0.00,,,0.00,VWS V14.01,2013-03-12 06:47:00,
2013-03-12 00:52:00,28.0,12.7,30.19,West,270,12.0,17.0,52,0.00,,,0.00,VWS V14.01,2013-03-12 06:52:00,
2013-03-12 00:57:00,29.0,12.2,30.19,NW,315,17.0,37.0,49,0.00,,,0.00,VWS V14.01,2013-03-12 06:57:00,
2013-03-12 01:02:00,29.0,11.3,30.18,NW,315,20.0,30.0,47,0.00,,,0.00,VWS V14.01,2013-03-12 07:02:00,
2013-03-12 01:07:00,29.0,10.8,30.18,WNW,292,24.0,31.0,46,0.00,,,0.00,VWS V14.01,2013-03-12 07:07:00,
2013-03-12 01:12:00,29.0,11.3,30.19,West,270,13.0,31.0,47,0.00,,,0.00,VWS V14.01,2013-03-12 07:12:00,
2013-03-12 01:17:00,28.0,10.9,30.19,NW,315,26.0,32.0,48,0.00,,,0.00,VWS V14.01,2013-03-12 07:17:00,
2013-03-12 01:23:00,28.0,10.4,30.19,NW,315,22.0,34.0,47,0.00,,,0.00,VWS V14.01,2013-03-12 07:23:00,
2013-03-12 01:28:00,28.0,11.3,30.19,NW,315,17.0,28.0,49,0.00,,,0.00,VWS V14.01,2013-03-12 07:28:00,
2013-03-12 01:33:00,28.0,10.9,30.18,NW,315,16.0,25.0,48,0.00,,,0.00,VWS V14.01,2013-03-12 07:33:00,
2013-03-12 01:38:00,27.0,9.9,30.18,NW,315,11.0,22.0,48,0.00,,,0.00,VWS V14.01,2013-03-12 07:38:00,
2013-03-12 01:43:00,27.0,9.9,30.20,WNW,292,13.0,25.0,48,0.00,,,0.00,VWS V14.01,2013-03-12 07:43:00,
2013-03-12 01:48:00,28.0,10.4,30.20,NW,315,16.0,27.0,47,0.00,,,0.00,VWS V14.01,2013-03-12 07:48:00,
2013-03-12 01:53:00,27.0,9.9,30.21,NW,315,13.0,20.0,48,0.00,,,0.00,VWS V14.01,2013-03-12 07:53:00,
2013-03-12 01:58:00,27.0,9.9,30.21,NW,315,18.0,20.0,48,0.00,,,0.00,VWS V14.01,2013-03-12 07:58:00,
2013-03-12 02:03:00,27.0,9.5,30.22,WNW,292,7.0,21.0,47,0.00,,,0.00,VWS V14.01,2013-03-12 08:03:00,
2013-03-12 02:08:00,26.0,8.6,30.22,WNW,292,10.0,16.0,47,0.00,,,0.00,VWS V14.01,2013-03-12 08:08:00,
2013-03-12 02:13:00,27.0,8.5,30.23,NW,315,13.0,17.0,45,0.00,,,0.00,VWS V14.01,2013-03-12 08:13:00,
2013-03-12 02:18:00,26.0,8.6,30.23,NW,315,7.0,17.0,47,0.00,,,0.00,VWS V14.01,2013-03-12 08:18:00,
2013-03-12 02:23:00,27.0,8.5,30.23,NW,315,15.0,18.0,45,0.00,,,0.00,VWS V14.01,2013-03-12 08:23:00,
2013-03-12 02:28:00,27.0,9.0,30.23,NW,315,20.0,27.0,46,0.00,,,0.00,VWS V14.01,2013-03-12 08:28:00,
2013-03-12 02:33:00,26.0,8.1,30.23,NW,315,13.0,25.0,46,0.00,,,0.00,VWS V14.01,2013-03-12 08:33:00,
2013-03-12 02:38:00,26.0,8.6,30.23,NW,315,12.0,20.0,47,0.00,,,0.00,VWS V14.01,2013-03-12 08:38:00,
2013-03-12 02:43:00,26.0,8.6,30.23,NW,315,15.0,20.0,47,0.00,,,0.00,VWS V14.01,2013-03-12 08:43:00,
2013-03-12 02:48:00,26.0,8.6,30.23,NW,315,13.0,20.0,47,0.00,,,0.00,VWS V14.01,2013-03-12 08:48:00,
2013-03-12 02:53:00,26.0,8.6,30.23,NW,315,19.0,22.0,47,0.00,,,0.00,VWS V14.01,2013-03-12 08:53:00,
2013-03-12 02:58:00,26.0,8.1,30.23,NW,315,13.0,23.0,46,0.00,,,0.00,VWS V14.01,2013-03-12 08:58:00,
2013-03-12 03:03:00,25.0,7.2,30.23,WSW,247,8.0,21.0,46,0.00,,,0.00,VWS V14.01,2013-03-12 09:03:00,
2013-03-12 03:08:00,26.0,7.6,30.23,NW,315,20.0,22.0,45,0.00,,,0.00,VWS V14.01,2013-03-12 09:08:00,
2013-03-12 03:13:00,26.0,7.1,30.23,NW,315,22.0,24.0,44,0.00,,,0.00,VWS V14.01,2013-03-12 09:13:00,
2013-03-12 03:18:00,26.0,6.6,30.23,NW,315,18.0,25.0,43,0.00,,,0.00,VWS V14.01,2013-03-12 09:18:00,
2013-03-12 03:23:00,25.0,6.2,30.23,NW,315,19.0,23.0,44,0.00,,,0.00,VWS V14.01,2013-03-12 09:23:00,
2013-03-12 03:28:00,26.0,6.6,30.23,NW,315,15.0,20.0,43,0.00,,,0.00,VWS V14.01,2013-03-12 09:28:00,
2013-03-12 03:33:00,25.0,5.7,30.23,NW,315,15.0,22.0,43,0.00,,,0.00,VWS V14.01,2013-03-12 09:33:00,
2013-03-12 03:38:00,25.0,5.7,30.23,West,270,10.0,22.0,43,0.00,,,0.00,VWS V14.01,2013-03-12 09:38:00,
2013-03-12 03:43:00,25.0,5.7,30.23,NW,315,19.0,22.0,43,0.00,,,0.00,VWS V14.01,2013-03-12 09:43:00,
2013-03-12 03:48:00,25.0,5.7,30.23,NW,315,19.0,21.0,43,0.00,,,0.00,VWS V14.01,2013-03-12 09:48:00,
2013-03-12 03:53:00,25.0,5.7,30.23,NW,315,10.0,16.0,43,0.00,,,0.00,VWS V14.01,2013-03-12 09:53:00,
2013-03-12 03:58:00,25.0,6.2,30.23,NW,315,12.0,22.0,44,0.00,,,0.00,VWS V14.01,2013-03-12 09:58:00,
2013-03-12 04:03:00,25.0,5.7,30.23,WNW,292,8.0,26.0,43,0.00,,,0.00,VWS V14.01,2013-03-12 10:03:00,
2013-03-12 04:08:00,25.0,5.7,30.23,WNW,292,18.0,28.0,43,0.00,,,0.00,VWS V14.01,2013-03-12 10:08:00,
2013-03-12 04:13:00,25.0,5.7,30.23,NW,315,15.0,25.0,43,0.00,,,0.00,VWS V14.01,2013-03-12 10:13:00,
2013-03-12 04:18:00,25.0,5.7,30.23,NW,315,17.0,20.0,43,0.00,,,0.00,VWS V14.01,2013-03-12 10:18:00,
2013-03-12 04:23:00,24.0,5.3,30.25,WNW,292,10.0,22.0,44,0.00,,,0.00,VWS V14.01,2013-03-12 10:23:00,
2013-03-12 04:28:00,24.0,5.3,30.25,WNW,292,16.0,20.0,44,0.00,,,0.00,VWS V14.01,2013-03-12 10:28:00,
2013-03-12 04:33:00,25.0,5.7,30.26,NW,315,15.0,23.0,43,0.00,,,0.00,VWS V14.01,2013-03-12 10:33:00,
2013-03-12 04:38:00,24.0,5.8,30.26,WNW,292,15.0,20.0,45,0.00,,,0.00,VWS V14.01,2013-03-12 10:38:00,
2013-03-12 04:43:00,24.0,6.2,30.27,WNW,292,12.0,16.0,46,0.00,,,0.00,VWS V14.01,2013-03-12 10:43:00,
2013-03-12 04:48:00,24.0,5.8,30.27,NW,315,15.0,15.0,45,0.00,,,0.00,VWS V14.01,2013-03-12 10:48:00,
2013-03-12 04:53:00,24.0,5.8,30.27,NW,315,19.0,19.0,45,0.00,,,0.00,VWS V14.01,2013-03-12 10:53:00,
2013-03-12 04:58:00,24.0,5.8,30.27,NW,315,15.0,24.0,45,0.00,,,0.00,VWS V14.01,2013-03-12 10:58:00,
2013-03-12 05:03:00,24.0,5.8,30.27,NW,315,15.0,26.0,45,0.00,,,0.00,VWS V14.01,2013-03-12 11:03:00,
2013-03-12 05:08:00,24.0,5.3,30.27,NW,315,17.0,28.0,44,0.00,,,0.00,VWS V14.01,2013-03-12 11:08:00,
2013-03-12 05:13:00,24.0,5.8,30.27,WNW,292,10.0,11.0,45,0.00,,,0.00,VWS V14.01,2013-03-12 11:13:00,
2013-03-12 05:18:00,25.0,5.7,30.27,NW,315,15.0,15.0,43,0.00,,,0.00,VWS V14.01,2013-03-12 11:18:00,
2013-03-12 05:23:00,25.0,5.2,30.26,WNW,292,16.0,19.0,42,0.00,,,0.00,VWS V14.01,2013-03-12 11:23:00,
2013-03-12 05:29:00,24.0,4.8,30.26,WNW,292,9.0,16.0,43,0.00,,,0.00,VWS V14.01,2013-03-12 11:29:00,
2013-03-12 05:34:00,25.0,5.2,30.28,WNW,292,16.0,17.0,42,0.00,,,0.00,VWS V14.01,2013-03-12 11:34:00,
2013-03-12 05:39:00,25.0,5.2,30.28,WNW,292,19.0,19.0,42,0.00,,,0.00,VWS V14.01,2013-03-12 11:39:00,
2013-03-12 05:44:00,25.0,5.2,30.28,WNW,292,12.0,20.0,42,0.00,,,0.00,VWS V14.01,2013-03-12 11:44:00,
2013-03-12 05:49:00,24.0,4.2,30.28,WNW,292,12.0,17.0,42,0.00,,,0.00,VWS V14.01,2013-03-12 11:49:00,
2013-03-12 05:54:00,24.0,4.8,30.29,WNW,292,10.0,13.0,43,0.00,,,0.00,VWS V14.01,2013-03-12 11:54:00,
2013-03-12 05:59:00,24.0,4.2,30.29,WNW,292,13.0,16.0,42,0.00,,,0.00,VWS V14.01,2013-03-12 11:59:00,
2013-03-12 06:04:00,24.0,4.2,30.29,NW,315,19.0,19.0,42,0.00,,,0.00,VWS V14.01,2013-03-12 12:04:00,
2013-03-12 06:09:00,24.0,4.2,30.29,WNW,292,18.0,20.0,42,0.00,,,0.00,VWS V14.01,2013-03-12 12:09:00,
2013-03-12 06:14:00,24.0,3.7,30.29,WNW,292,16.0,21.0,41,0.00,,,0.00,VWS V14.01,2013-03-12 12:14:00,
2013-03-12 06:19:00,25.0,4.6,30.29,NW,315,16.0,21.0,41,0.00,,,0.00,VWS V14.01,2013-03-12 12:19:00,
2013-03-12 06:24:00,24.0,3.7,30.27,West,270,17.0,19.0,41,0.00,,,0.00,VWS V14.01,2013-03-12 12:24:00,
2013-03-12 06:29:00,24.0,3.7,30.27,WNW,292,23.0,23.0,41,0.00,,,0.00,VWS V14.01,2013-03-12 12:29:00,
2013-03-12 06:34:00,24.0,4.2,30.29,WNW,292,12.0,15.0,42,0.00,,,0.00,VWS V14.01,2013-03-12 12:34:00,
2013-03-12 06:39:00,24.0,4.2,30.29,WNW,292,10.0,17.0,42,0.00,,,0.00,VWS V14.01,2013-03-12 12:39:00,
2013-03-12 06:44:00,24.0,4.2,30.29,West,270,13.0,19.0,42,0.00,,,0.00,VWS V14.01,2013-03-12 12:44:00,
2013-03-12 06:49:00,24.0,4.8,30.29,WNW,292,14.0,20.0,43,0.00,,,0.00,VWS V14.01,2013-03-12 12:49:00,
2013-03-12 06:54:00,23.0,3.8,30.29,West,270,9.0,12.0,43,0.00,,,0.00,VWS V14.01,2013-03-12 12:54:00,
2013-03-12 06:59:00,24.0,4.2,30.29,WNW,292,18.0,19.0,42,28.69,,,0.00,VWS V14.01,2013-03-12 12:59:00,
2013-03-12 07:04:00,23.0,3.3,30.30,WNW,292,6.0,13.0,42,0.00,,,0.00,VWS V14.01,2013-03-12 13:04:00,
2013-03-12 07:09:00,23.0,3.3,30.30,NW,315,10.0,15.0,42,0.00,,,0.00,VWS V14.01,2013-03-12 13:09:00,
2013-03-12 07:14:00,23.0,3.3,30.31,WNW,292,9.0,13.0,42,0.00,,,0.00,VWS V14.01,2013-03-12 13:14:00,
2013-03-12 07:19:00,23.0,3.3,30.31,WNW,292,16.0,16.0,42,0.00,,,0.00,VWS V14.01,2013-03-12 13:19:00,
2013-03-12 07:24:00,24.0,4.2,30.30,WNW,292,17.0,20.0,42,0.00,,,0.00,VWS V14.01,2013-03-12 13:24:00,
2013-03-12 07:29:00,23.0,3.3,30.30,WNW,292,16.0,19.0,42,0.00,,,0.00,VWS V14.01,2013-03-12 13:29:00,
2013-03-12 07:34:00,24.0,3.7,30.30,WNW,292,12.0,20.0,41,0.00,,,0.00,VWS V14.01,2013-03-12 13:34:00,
2013-03-12 07:39:00,24.0,4.2,30.30,WNW,292,12.0,18.0,42,0.00,,,0.00,VWS V14.01,2013-03-12 13:39:00,
2013-03-12 07:44:00,24.0,4.2,30.30,WNW,292,10.0,15.0,42,0.00,,,0.00,VWS V14.01,2013-03-12 13:44:00,
2013-03-12 07:49:00,24.0,3.7,30.30,NW,315,15.0,15.0,41,0.00,,,0.00,VWS V14.01,2013-03-12 13:49:00,
2013-03-12 07:54:00,25.0,4.1,30.30,WNW,292,7.0,15.0,40,0.00,,,0.00,VWS V14.01,2013-03-12 13:54:00,
2013-03-12 07:59:00,25.0,4.1,30.30,WNW,292,8.0,17.0,40,0.00,,,0.00,VWS V14.01,2013-03-12 13:59:00,
2013-03-12 08:04:00,25.0,3.5,30.30,WNW,292,10.0,20.0,39,0.00,,,0.00,VWS V14.01,2013-03-12 14:04:00,
2013-03-12 08:09:00,25.0,3.5,30.30,WNW,292,15.0,16.0,39,0.00,,,0.00,VWS V14.01,2013-03-12 14:09:00,
2013-03-12 08:14:00,25.0,3.5,30.30,WNW,292,10.0,20.0,39,0.00,,,0.00,VWS V14.01,2013-03-12 14:14:00,
2013-03-12 08:19:00,26.0,3.9,30.30,NW,315,15.0,21.0,38,0.00,,,0.00,VWS V14.01,2013-03-12 14:19:00,
2013-03-12 08:24:00,26.0,3.9,30.30,NW,315,21.0,21.0,38,0.00,,,0.00,VWS V14.01,2013-03-12 14:24:00,
2013-03-12 08:29:00,26.0,3.9,30.30,NW,315,17.0,19.0,38,0.00,,,0.00,VWS V14.01,2013-03-12 14:29:00,
2013-03-12 08:35:00,26.0,3.9,30.30,NW,315,20.0,25.0,38,0.00,,,0.00,VWS V14.01,2013-03-12 14:35:00,
2013-03-12 08:40:00,27.0,4.2,30.30,NW,315,16.0,17.0,37,0.00,,,0.00,VWS V14.01,2013-03-12 14:40:00,
2013-03-12 08:45:00,27.0,4.2,30.30,NW,315,14.0,19.0,37,0.00,,,0.00,VWS V14.01,2013-03-12 14:45:00,
2013-03-12 08:50:00,27.0,4.2,30.30,WNW,292,14.0,21.0,37,0.00,,,0.00,VWS V14.01,2013-03-12 14:50:00,
2013-03-12 08:55:00,27.0,3.6,30.30,NW,315,25.0,25.0,36,0.00,,,0.00,VWS V14.01,2013-03-12 14:55:00,
2013-03-12 09:00:00,28.0,3.9,30.30,NW,315,20.0,22.0,35,0.00,,,0.00,VWS V14.01,2013-03-12 15:00:00,
2013-03-12 09:05:00,28.0,3.9,30.30,NW,315,14.0,16.0,35,0.00,,,0.00,VWS V14.01,2013-03-12 15:05:00,
2013-03-12 09:10:00,28.0,3.9,30.29,WNW,292,20.0,22.0,35,0.00,,,0.00,VWS V14.01,2013-03-12 15:10:00,
2013-03-12 09:15:00,28.0,3.9,30.29,WNW,292,15.0,19.0,35,0.00,,,0.00,VWS V14.01,2013-03-12 15:15:00,
2013-03-12 09:20:00,29.0,4.2,30.30,NW,315,13.0,21.0,34,0.00,,,0.00,VWS V14.01,2013-03-12 15:20:00,
2013-03-12 09:25:00,29.0,3.5,30.30,NW,315,17.0,19.0,33,0.00,,,0.00,VWS V14.01,2013-03-12 15:25:00,
2013-03-12 09:30:00,30.0,4.4,30.29,NW,315,15.0,21.0,33,0.00,,,0.00,VWS V14.01,2013-03-12 15:30:00,
2013-03-12 09:35:00,29.0,3.5,30.29,WNW,292,13.0,21.0,33,0.00,,,0.00,VWS V14.01,2013-03-12 15:35:00,
2013-03-12 09:40:00,30.0,3.7,30.29,NW,315,20.0,24.0,32,0.00,,,0.00,VWS V14.01,2013-03-12 15:40:00,
2013-03-12 09:45:00,30.0,3.7,30.29,WNW,292,10.0,25.0,32,0.00,,,0.00,VWS V14.01,2013-03-12 15:45:00,
2013-03-12 09:50:00,31.0,3.9,30.29,West,270,19.0,21.0,31,0.00,,,0.00,VWS V14.01,2013-03-12 15:50:00,
2013-03-12 09:55:00,31.0,3.9,30.29,WNW,292,8.0,23.0,31,0.00,,,0.00,VWS V14.01,2013-03-12 15:55:00,
2013-03-12 10:00:00,31.0,3.2,30.29,NW,315,15.0,26.0,30,0.00,,,0.00,VWS V14.01,2013-03-12 16:00:00,
2013-03-12 10:05:00,31.0,3.2,30.29,WNW,292,15.0,26.0,30,0.00,,,0.00,VWS V14.01,2013-03-12 16:05:00,
2013-03-12 10:10:00,31.0,3.2,30.29,NW,315,17.0,21.0,30,0.00,,,0.00,VWS V14.01,2013-03-12 16:10:00,
2013-03-12 10:15:00,32.0,4.1,30.29,WNW,292,15.0,25.0,30,0.00,,,0.00,VWS V14.01,2013-03-12 16:15:00,
2013-03-12 10:20:00,32.0,3.3,30.29,WNW,292,10.0,23.0,29,0.00,,,0.00,VWS V14.01,2013-03-12 16:20:00,
2013-03-12 10:25:00,32.0,2.6,30.29,WNW,292,16.0,23.0,28,0.00,,,0.00,VWS V14.01,2013-03-12 16:25:00,
2013-03-12 10:30:00,32.0,2.6,30.28,NW,315,10.0,20.0,28,0.00,,,0.00,VWS V14.01,2013-03-12 16:30:00,
2013-03-12 10:35:00,33.0,2.7,30.28,West,270,18.0,23.0,27,0.00,,,0.00,VWS V14.01,2013-03-12 16:35:00,
2013-03-12 10:40:00,32.0,2.6,30.27,NW,315,16.0,27.0,28,0.00,,,0.00,VWS V14.01,2013-03-12 16:40:00,
2013-03-12 10:45:00,33.0,1.9,30.27,WNW,292,20.0,24.0,26,0.00,,,0.00,VWS V14.01,2013-03-12 16:45:00,
2013-03-12 10:50:00,33.0,1.9,30.28,WNW,292,12.0,20.0,26,0.00,,,0.00,VWS V14.01,2013-03-12 16:50:00,
2013-03-12 10:55:00,33.0,2.7,30.28,NW,315,14.0,23.0,27,0.00,,,0.00,VWS V14.01,2013-03-12 16:55:00,
2013-03-12 11:00:00,33.0,1.9,30.28,NW,315,20.0,23.0,26,0.00,,,0.00,VWS V14.01,2013-03-12 17:00:00,
2013-03-12 11:05:00,33.0,1.9,30.28,NW,315,15.0,21.0,26,0.00,,,0.00,VWS V14.01,2013-03-12 17:05:00,
2013-03-12 11:10:00,34.0,2.7,30.27,NNW,337,17.0,22.0,26,0.00,,,0.00,VWS V14.01,2013-03-12 17:10:00,
2013-03-12 11:15:00,33.0,2.7,30.27,NW,315,17.0,28.0,27,0.00,,,0.00,VWS V14.01,2013-03-12 17:15:00,
2013-03-12 11:20:00,34.0,2.7,30.27,NW,315,23.0,23.0,26,0.00,,,0.00,VWS V14.01,2013-03-12 17:20:00,
2013-03-12 11:25:00,35.0,3.6,30.27,North,360,15.0,19.0,26,0.00,,,0.00,VWS V14.01,2013-03-12 17:25:00,
2013-03-12 11:30:00,34.0,2.7,30.27,NNW,337,14.0,23.0,26,0.00,,,0.00,VWS V14.01,2013-03-12 17:30:00,
2013-03-12 11:35:00,33.0,2.7,30.27,NW,315,19.0,22.0,27,0.00,,,0.00,VWS V14.01,2013-03-12 17:35:00,
2013-03-12 11:40:00,35.0,4.4,30.27,NNW,337,19.0,27.0,27,0.00,,,0.00,VWS V14.01,2013-03-12 17:40:00,
2013-03-12 11:45:00,34.0,2.7,30.27,NW,315,23.0,23.0,26,0.00,,,0.00,VWS V14.01,2013-03-12 17:45:00,
2013-03-12 11:50:00,35.0,3.6,30.25,North,360,25.0,28.0,26,0.00,,,0.00,VWS V14.01,2013-03-12 17:50:00,
2013-03-12 11:55:00,35.0,3.6,30.25,NNW,337,16.0,23.0,26,0.00,,,0.00,VWS V14.01,2013-03-12 17:55:00,
2013-03-12 12:00:00,34.0,3.5,30.27,NNW,337,17.0,27.0,27,0.00,,,0.00,VWS V14.01,2013-03-12 18:00:00,
2013-03-12 12:05:00,35.0,3.6,30.27,NNW,337,15.0,22.0,26,0.00,,,0.00,VWS V14.01,2013-03-12 18:05:00,
2013-03-12 12:10:00,35.0,3.6,30.25,North,360,25.0,28.0,26,0.00,,,0.00,VWS V14.01,2013-03-12 18:10:00,
2013-03-12 12:16:00,35.0,4.4,30.25,NNW,337,15.0,25.0,27,0.00,,,0.00,VWS V14.01,2013-03-12 18:16:00,
2013-03-12 12:21:00,35.0,3.6,30.25,NW,315,18.0,23.0,26,0.00,,,0.00,VWS V14.01,2013-03-12 18:21:00,
2013-03-12 12:26:00,36.0,4.4,30.25,North,360,22.0,25.0,26,0.00,,,0.00,VWS V14.01,2013-03-12 18:26:00,
2013-03-12 12:31:00,36.0,4.4,30.25,NNW,337,21.0,27.0,26,0.00,,,0.00,VWS V14.01,2013-03-12 18:31:00,
2013-03-12 12:36:00,35.0,3.6,30.25,NNW,337,22.0,28.0,26,0.00,,,0.00,VWS V14.01,2013-03-12 18:36:00,
2013-03-12 12:41:00,37.0,4.5,30.25,NNW,337,17.0,25.0,25,0.00,,,0.00,VWS V14.01,2013-03-12 18:41:00,
2013-03-12 12:45:00,38.0,6.2,30.23,NNW,337,19.0,19.0,26,0.00,,,0.00,VWS V14.01,2013-03-12 18:45:00,
2013-03-12 12:46:00,36.0,4.4,30.25,NNW,337,14.0,24.0,26,0.00,,,0.00,VWS V14.01,2013-03-12 18:46:00,
2013-03-12 12:51:00,37.0,4.5,30.25,North,360,19.0,22.0,25,0.00,,,0.00,VWS V14.01,2013-03-12 18:51:00,
2013-03-12 12:56:00,37.0,3.6,30.25,NW,315,20.0,22.0,24,0.00,,,0.00,VWS V14.01,2013-03-12 18:56:00,
2013-03-12 13:00:00,38.0,5.3,30.23,North,360,20.0,20.0,25,0.00,,,0.00,VWS V14.01,2013-03-12 19:00:00,
2013-03-12 13:01:00,37.0,4.5,30.24,NNW,337,12.0,23.0,25,0.00,,,0.00,VWS V14.01,2013-03-12 19:01:00,
2013-03-12 13:06:00,37.0,3.6,30.24,North,360,12.0,19.0,24,0.00,,,0.00,VWS V14.01,2013-03-12 19:06:00,
2013-03-12 13:11:00,37.0,5.3,30.24,North,360,23.0,28.0,26,0.00,,,0.00,VWS V14.01,2013-03-12 19:11:00,
2013-03-12 13:15:00,38.0,4.4,30.21,North,360,20.0,20.0,24,0.00,,,0.00,VWS V14.01,2013-03-12 19:15:00,
2013-03-12 13:16:00,38.0,5.3,30.24,NW,315,19.0,21.0,25,0.00,,,0.00,VWS V14.01,2013-03-12 19:16:00,
2013-03-12 13:21:00,36.0,4.4,30.23,NNW,337,13.0,25.0,26,0.00,,,0.00,VWS V14.01,2013-03-12 19:21:00,
2013-03-12 13:26:00,37.0,5.3,30.23,NNW,337,24.0,24.0,26,0.00,,,0.00,VWS V14.01,2013-03-12 19:26:00,
2013-03-12 13:30:00,39.0,5.3,30.21,North,360,20.0,20.0,24,0.00,,,0.00,VWS V14.01,2013-03-12 19:30:00,
2013-03-12 13:31:00,38.0,5.3,30.23,North,360,15.0,26.0,25,0.00,,,0.00,VWS V14.01,2013-03-12 19:31:00,
2013-03-12 13:36:00,38.0,6.2,30.23,North,360,19.0,25.0,26,0.00,,,0.00,VWS V14.01,2013-03-12 19:36:00,
2013-03-12 13:45:00,40.0,5.2,30.19,North,360,22.0,22.0,23,0.00,,,0.00,VWS V14.01,2013-03-12 19:45:00,
2013-03-12 14:00:00,40.0,6.1,30.20,NNW,337,21.0,22.0,24,0.00,,,0.00,VWS V14.01,2013-03-12 20:00:00,
2013-03-12 14:15:00,39.0,4.4,30.17,North,360,21.0,21.0,23,0.00,,,0.00,VWS V14.01,2013-03-12 20:15:00,
2013-03-12 14:30:00,39.0,5.3,30.18,NNW,337,22.0,22.0,24,0.00,,,0.00,VWS V14.01,2013-03-12 20:30:00,
2013-03-12 14:45:00,39.0,5.3,30.18,North,360,22.0,22.0,24,0.00,,,0.00,VWS V14.01,2013-03-12 20:45:00,
2013-03-12 15:00:00,39.0,4.4,30.17,North,360,19.0,22.0,23,0.00,,,0.00,VWS V14.01,2013-03-12 21:00:00,
2013-03-12 15:15:00,40.0,5.2,30.19,North,360,17.0,19.0,23,0.00,,,0.00,VWS V14.01,2013-03-12 21:15:00,
2013-03-12 15:30:00,40.0,5.2,30.18,North,360,17.0,17.0,23,0.00,,,0.00,VWS V14.01,2013-03-12 21:30:00,
2013-03-12 15:45:00,40.0,5.2,30.18,North,360,15.0,17.0,23,0.00,,,0.00,VWS V14.01,2013-03-12 21:45:00,
2013-03-12 16:00:00,40.0,5.2,30.18,North,360,13.0,15.0,23,0.00,,,0.00,VWS V14.01,2013-03-12 22:00:00,
2013-03-12 16:15:00,40.0,6.1,30.18,North,360,10.0,13.0,24,0.00,,,0.00,VWS V14.01,2013-03-12 22:15:00,
2013-03-12 16:30:00,39.0,5.3,30.19,North,360,9.0,10.0,24,0.00,,,0.00,VWS V14.01,2013-03-12 22:30:00,
2013-03-12 16:45:00,39.0,5.3,30.20,NNE,22,9.0,9.0,24,0.00,,,0.00,VWS V14.01,2013-03-12 22:45:00,
2013-03-12 17:00:00,37.0,6.1,30.20,NNE,22,9.0,9.0,27,0.00,,,0.00,VWS V14.01,2013-03-12 23:00:00,
2013-03-12 17:15:00,35.0,4.4,30.23,NNE,22,8.0,9.0,27,0.00,,,0.00,VWS V14.01,2013-03-12 23:15:00,
2013-03-12 17:30:00,34.0,4.3,30.23,NNE,22,6.0,8.0,28,0.00,,,0.00,VWS V14.01,2013-03-12 23:30:00,
2013-03-12 17:45:00,33.0,4.2,30.25,NNE,22,5.0,6.0,29,0.00,,,0.00,VWS V14.01,2013-03-12 23:45:00,
2013-03-12 18:00:00,32.0,5.5,30.26,NE,45,2.0,5.0,32,0.00,,,0.00,VWS V14.01,2013-03-13 00:00:00,
2013-03-12 18:15:00,31.0,4.6,30.26,NNE,22,2.0,2.0,32,0.00,,,0.00,VWS V14.01,2013-03-13 00:15:00,
2013-03-12 18:30:00,32.0,5.5,30.26,NE,45,0.0,2.0,32,0.00,,,0.00,VWS V14.01,2013-03-13 00:30:00,
2013-03-12 18:45:00,29.0,3.5,30.27,NE,45,0.0,0.0,33,0.00,,,0.00,VWS V14.01,2013-03-13 00:45:00,
2013-03-12 19:00:00,26.0,3.3,30.29,NE,45,0.0,0.0,37,0.00,,,0.00,VWS V14.01,2013-03-13 01:00:00,
2013-03-12 19:15:00,26.0,3.9,30.30,NE,45,0.0,0.0,38,0.00,,,0.00,VWS V14.01,2013-03-13 01:15:00,
2013-03-12 19:30:00,26.0,3.9,30.30,NNE,22,0.0,0.0,38,0.00,,,0.00,VWS V14.01,2013-03-13 01:30:00,
2013-03-12 19:45:00,24.0,3.7,30.31,NNE,22,0.0,0.0,41,0.00,,,0.00,VWS V14.01,2013-03-13 01:45:00,
2013-03-12 20:00:00,24.0,3.2,30.31,NNE,22,0.0,0.0,40,0.00,,,0.00,VWS V14.01,2013-03-13 02:00:00,
2013-03-12 20:15:00,23.0,3.3,30.31,NNE,22,0.0,0.0,42,0.00,,,0.00,VWS V14.01,2013-03-13 02:15:00,
2013-03-12 20:30:00,24.0,4.2,30.31,SW,225,0.0,0.0,42,0.00,,,0.00,VWS V14.01,2013-03-13 02:30:00,
2013-03-12 20:45:00,23.0,3.3,30.31,SSW,202,0.0,0.0,42,0.00,,,0.00,VWS V14.01,2013-03-13 02:45:00,
2013-03-12 21:00:00,23.0,3.8,30.31,SSW,202,0.0,0.0,43,0.00,,,0.00,VWS V14.01,2013-03-13 03:00:00,
2013-03-12 21:15:00,22.0,4.4,30.31,SSW,202,0.0,0.0,46,0.00,,,0.00,VWS V14.01,2013-03-13 03:15:00,
2013-03-12 21:30:00,22.0,5.3,30.32,SSW,202,1.0,1.0,48,0.00,,,0.00,VWS V14.01,2013-03-13 03:30:00,
2013-03-12 21:45:00,24.0,5.8,30.31,SSW,202,5.0,5.0,45,0.00,,,0.00,VWS V14.01,2013-03-13 03:45:00,
2013-03-12 22:00:00,26.0,6.1,30.29,South,180,6.0,6.0,42,0.00,,,0.00,VWS V14.01,2013-03-13 04:00:00,
2013-03-12 22:15:00,27.0,5.9,30.28,South,180,6.0,6.0,40,0.00,,,0.00,VWS V14.01,2013-03-13 04:15:00,
2013-03-12 22:30:00,27.0,5.9,30.28,SSE,157,7.0,7.0,40,0.00,,,0.00,VWS V14.01,2013-03-13 04:30:00,
2013-03-12 22:45:00,26.0,6.6,30.28,SSE,157,7.0,7.0,43,0.00,,,0.00,VWS V14.01,2013-03-13 04:45:00,
2013-03-12 23:00:00,26.0,6.6,30.27,SE,135,6.0,7.0,43,0.00,,,0.00,VWS V14.01,2013-03-13 05:00:00,
2013-03-12 23:15:00,25.0,6.7,30.27,SE,135,7.0,7.0,45,0.00,,,0.00,VWS V14.01,2013-03-13 05:15:00,
2013-03-12 23:30:00,25.0,6.7,30.27,SSE,157,7.0,7.0,45,0.00,,,0.00,VWS V14.01,2013-03-13 05:30:00,
2013-03-12 23:45:00,28.0,7.4,30.25,SSE,157,9.0,9.0,41,0.00,,,0.00,VWS V14.01,2013-03-13 05:45:00,